Map

Track Data

SID SEASON NUMBER BASIN SUBBASIN NAME ISO_TIME NATURE LAT LON WMO_WIND WMO_PRES WMO_AGENCY TRACK_TYPE DIST2LAND LANDFALL IFLAG USA_AGENCY USA_ATCF_ID USA_LAT USA_LON USA_RECORD USA_STATUS USA_WIND USA_PRES USA_SSHS USA_R34_NE USA_R34_SE USA_R34_SW USA_R34_NW USA_R50_NE USA_R50_SE USA_R50_SW USA_R50_NW USA_R64_NE USA_R64_SE USA_R64_SW USA_R64_NW USA_POCI USA_ROCI USA_RMW USA_EYE TOKYO_LAT TOKYO_LON TOKYO_GRADE TOKYO_WIND TOKYO_PRES TOKYO_R50_DIR TOKYO_R50_LONG TOKYO_R50_SHORT TOKYO_R30_DIR TOKYO_R30_LONG TOKYO_R30_SHORT TOKYO_LAND CMA_LAT CMA_LON CMA_CAT CMA_WIND CMA_PRES HKO_LAT HKO_LON HKO_CAT HKO_WIND HKO_PRES NEWDELHI_LAT NEWDELHI_LON NEWDELHI_GRADE NEWDELHI_WIND NEWDELHI_PRES NEWDELHI_CI NEWDELHI_DP NEWDELHI_POCI REUNION_LAT REUNION_LON REUNION_TYPE REUNION_WIND REUNION_PRES REUNION_TNUM REUNION_CI REUNION_RMW REUNION_R34_NE REUNION_R34_SE REUNION_R34_SW REUNION_R34_NW REUNION_R50_NE REUNION_R50_SE REUNION_R50_SW REUNION_R50_NW REUNION_R64_NE REUNION_R64_SE REUNION_R64_SW REUNION_R64_NW BOM_LAT BOM_LON BOM_TYPE BOM_WIND BOM_PRES BOM_TNUM BOM_CI BOM_RMW BOM_R34_NE BOM_R34_SE BOM_R34_SW BOM_R34_NW BOM_R50_NE BOM_R50_SE BOM_R50_SW BOM_R50_NW BOM_R64_NE BOM_R64_SE BOM_R64_SW BOM_R64_NW BOM_ROCI BOM_POCI BOM_EYE BOM_POS_METHOD BOM_PRES_METHOD NADI_LAT NADI_LON NADI_CAT NADI_WIND NADI_PRES WELLINGTON_LAT WELLINGTON_LON WELLINGTON_WIND WELLINGTON_PRES DS824_LAT DS824_LON DS824_STAGE DS824_WIND DS824_PRES TD9636_LAT TD9636_LON TD9636_STAGE TD9636_WIND TD9636_PRES TD9635_LAT TD9635_LON TD9635_WIND TD9635_PRES TD9635_ROCI NEUMANN_LAT NEUMANN_LON NEUMANN_CLASS NEUMANN_WIND NEUMANN_PRES MLC_LAT MLC_LON MLC_CLASS MLC_WIND MLC_PRES USA_GUST BOM_GUST BOM_GUST_PER REUNION_GUST REUNION_GUST_PER USA_SEAHGT USA_SEARAD_NE USA_SEARAD_SE USA_SEARAD_SW USA_SEARAD_NW STORM_SPEED STORM_DIR
1936273N15086 1936 54 NI BB NOT_NAMED 1936-09-29 00:00:00 TS 14.9000 86.1000 main 432 424 _________O____ -1 14.9000 86.1000 TC 30 1 0
1936273N15086 1936 54 NI BB NOT_NAMED 1936-09-29 03:00:00 TS 14.9583 86.0917 main 424 416 _________PO___ -1 14.9875 86.0875 TC 30 14.9000 86.1000 1 2 0
1936273N15086 1936 54 NI BB NOT_NAMED 1936-09-29 06:00:00 TS 15.0725 86.1143 main 416 407 _________OP___ -1 15.1000 86.1000 TC 30 15.0313 86.1358 1 3 15
1936273N15086 1936 54 NI BB NOT_NAMED 1936-09-29 09:00:00 TS 15.2115 86.1574 main 412 403 _________PP___ -1 15.2500 86.1500 TC 30 15.1600 86.1673 1 3 16
1936273N15086 1936 54 NI BB NOT_NAMED 1936-09-29 12:00:00 TS 15.3419 86.1951 main 403 394 _________OP___ -1 15.4000 86.2000 TC 30 15.2838 86.1902 1 2 8
1936273N15086 1936 54 NI BB NOT_NAMED 1936-09-29 15:00:00 TS 15.4500 86.2000 main 384 384 _________PO___ -1 15.5000 86.2000 TC 30 15.4000 86.2000 1 2 4
1936273N15086 1936 54 NI BB NOT_NAMED 1936-09-29 18:00:00 TS 15.5543 86.1984 main 375 366 _________OP___ -1 15.6000 86.2000 TC 30 15.5087 86.1968 1 2 2
1936273N15086 1936 54 NI BB NOT_NAMED 1936-09-29 21:00:00 TS 15.6737 86.2127 main 366 357 _________PP___ -1 15.7275 86.2276 TC 30 15.6199 86.1979 1 3 11
1936273N15086 1936 54 NI BB NOT_NAMED 1936-09-30 00:00:00 TS 15.8231 86.2625 main 364 347 _________OP___ -1 15.9000 86.3000 TC 30 15.7461 86.2250 1 4 22
1936273N15086 1936 54 NI BB NOT_NAMED 1936-09-30 03:00:00 TS 16.0212 86.3600 main 354 338 _________PO___ -1 16.1425 86.4200 TC 30 15.9000 86.3000 1 5 30
1936273N15086 1936 54 NI BB NOT_NAMED 1936-09-30 06:00:00 TS 16.2522 86.5187 main 339 338 _________OP___ -1 16.4000 86.6000 TC 30 16.1044 86.4374 1 6 38
1936273N15086 1936 54 NI BB NOT_NAMED 1936-09-30 09:00:00 TS 16.4712 86.7299 main 338 338 _________PP___ -1 16.6075 86.8350 TC 30 16.3350 86.6248 1 6 45
1936273N15086 1936 54 NI BB NOT_NAMED 1936-09-30 12:00:00 TS 16.6865 86.9750 main 346 346 _________OP___ -1 16.8000 87.1000 TC 30 16.5731 86.8499 1 6 47
1936273N15086 1936 54 NI BB NOT_NAMED 1936-09-30 15:00:00 TS 16.9037 87.2213 main 347 341 _________PO___ -1 17.0074 87.3425 TC 30 16.8000 87.1000 1 6 50
1936273N15086 1936 54 NI BB NOT_NAMED 1936-09-30 18:00:00 TS 17.0988 87.4868 main 344 336 _________OP___ -1 17.2000 87.6000 TC 30 16.9977 87.3737 1 7 56
1936273N15086 1936 54 NI BB NOT_NAMED 1936-09-30 21:00:00 TS 17.2727 87.7899 main 336 331 _________PP___ -1 17.3651 87.9150 TC 30 17.1803 87.6649 1 6 60
1936273N15086 1936 54 NI BB NOT_NAMED 1936-10-01 00:00:00 TS 17.4238 88.0743 main 341 332 _________OP___ -1 17.5000 88.2000 TC 30 17.3477 87.9486 1 6 60
1936273N15086 1936 54 NI BB NOT_NAMED 1936-10-01 03:00:00 TS 17.5500 88.2863 main 343 332 _________PO___ -1 17.5999 88.3726 TC 30 17.5000 88.2000 1 4 56
1936273N15086 1936 54 NI BB NOT_NAMED 1936-10-01 06:00:00 TS 17.6676 88.4492 main 332 332 _________OP___ -1 17.7000 88.5000 TC 30 17.6351 88.3984 1 4 51
1936273N15086 1936 54 NI BB NOT_NAMED 1936-10-01 09:00:00 TS 17.7999 88.6089 main 337 337 _________PP___ -1 17.8425 88.6575 TC 30 17.7573 88.5603 1 4 46
1936273N15086 1936 54 NI BB NOT_NAMED 1936-10-01 12:00:00 TS 17.9379 88.7460 main 337 329 _________OP___ -1 18.0000 88.8000 TC 30 17.8758 88.6920 1 4 41
1936273N15086 1936 54 NI BB NOT_NAMED 1936-10-01 15:00:00 TS 18.0750 88.8575 main 337 329 _________PO___ -1 18.1500 88.9150 TC 30 18.0000 88.8000 1 4 35
1936273N15086 1936 54 NI BB NOT_NAMED 1936-10-01 18:00:00 TS 18.2254 88.9584 main 336 321 _________OP___ -1 18.3000 89.0000 TC 30 18.1509 88.9169 1 4 29
1936273N15086 1936 54 NI BB NOT_NAMED 1936-10-01 21:00:00 TS 18.3825 89.0412 main 321 321 _________PP___ -1 18.4575 89.0725 TC 30 18.3074 89.0099 1 3 21
1936273N15086 1936 54 NI BB NOT_NAMED 1936-10-02 00:00:00 TS 18.5301 89.0865 main 322 315 _________OP___ -1 18.6000 89.1000 TC 30 18.4603 89.0731 1 3 8
1936273N15086 1936 54 NI BB NOT_NAMED 1936-10-02 03:00:00 TS 18.6538 89.0825 main 308 293 _________PO___ -1 18.7075 89.0650 TC 30 18.6000 89.1000 1 2 348
1936273N15086 1936 54 NI BB NOT_NAMED 1936-10-02 06:00:00 TS 18.7592 89.0471 main 293 287 _________OP___ -1 18.8000 89.0000 TC 30 18.7184 89.0942 1 2 343
1936273N15086 1936 54 NI BB NOT_NAMED 1936-10-02 09:00:00 TS 18.8612 89.0050 main 287 272 _________PP___ -1 18.9000 88.9575 TC 30 18.8225 89.0526 1 2 334
1936273N15086 1936 54 NI BB NOT_NAMED 1936-10-02 12:00:00 TS 18.9576 88.9424 main 272 272 _________OP___ -1 19.0000 88.9000 TC 30 18.9153 88.9847 1 2 323
1936273N15086 1936 54 NI BB NOT_NAMED 1936-10-02 15:00:00 TS 19.0538 88.8538 main 266 257 _________PO___ -1 19.1075 88.8075 TC 38 19.0000 88.9000 1 2 320
1936273N15086 1936 54 NI BB NOT_NAMED 1936-10-02 18:00:00 TS 19.1410 88.7774 main 257 242 _________OP___ -1 19.2000 88.7000 TC 47 19.0819 88.8549 1 2 319
1936273N15086 1936 54 NI BB NOT_NAMED 1936-10-02 21:00:00 TS 19.2035 88.7136 main 242 228 _________PP___ -1 19.2499 88.6374 TC 55 19.1571 88.7898 1 2 305
1936273N15086 1936 54 NI BB NOT_NAMED 1936-10-03 00:00:00 TS 19.2643 88.5899 main 228 210 _________OP___ -1 19.3000 88.5000 TC 64 19.2287 88.6798 1 4 293
1936273N15086 1936 54 NI BB NOT_NAMED 1936-10-03 03:00:00 TS 19.3500 88.3438 main 195 169 _________PO___ -1 19.4001 88.1876 TC 64 19.3000 88.5000 4 6 286
1936273N15086 1936 54 NI BB NOT_NAMED 1936-10-03 06:00:00 TS 19.4276 88.0048 main 169 137 _________OP___ -1 19.5000 87.8000 TC 64 19.3551 88.2095 4 7 281
1936273N15086 1936 54 NI BB NOT_NAMED 1936-10-03 09:00:00 TS 19.4778 87.6473 main 129 109 _________PP___ -1 19.5425 87.4424 TC 64 19.4131 87.8522 4 7 280
1936273N15086 1936 54 NI BB NOT_NAMED 1936-10-03 12:00:00 TS 19.5447 87.2844 main 109 71 _________OP___ -1 19.6000 87.1000 TC 64 19.4895 87.4688 4 7 285
1936273N15086 1936 54 NI BB NOT_NAMED 1936-10-03 15:00:00 TS 19.6600 86.9425 main 62 38 _________PO___ -1 19.7199 86.7850 TC 55 19.6000 87.1000 4 7 295
1936273N15086 1936 54 NI BB NOT_NAMED 1936-10-03 18:00:00 TS 19.8218 86.6476 main 30 0 _________OP___ -1 19.9000 86.5000 TC 47 19.7435 86.7952 4 6 304
1936273N15086 1936 54 NI BB NOT_NAMED 1936-10-03 21:00:00 TS 20.0261 86.3774 main 0 0 _________PP___ -1 20.1274 86.2424 TC 38 19.9247 86.5123 4 7 312
1936273N15086 1936 54 NI BB NOT_NAMED 1936-10-04 00:00:00 TS 20.2718 86.1241 main 0 0 _________OP___ -1 20.4000 86.0000 TC 30 20.1436 86.2482 4 7 317
1936273N15086 1936 54 NI BB NOT_NAMED 1936-10-04 03:00:00 TS 20.5425 85.8712 main 0 0 _________PO___ -1 20.6850 85.7424 TC 30 20.4000 86.0000 1 7 320
1936273N15086 1936 54 NI BB NOT_NAMED 1936-10-04 06:00:00 TS 20.8405 85.6182 main 0 0 _________OP___ -1 21.0000 85.5000 TC 30 20.6809 85.7365 1 8 324
1936273N15086 1936 54 NI BB NOT_NAMED 1936-10-04 09:00:00 TS 21.1700 85.3876 main 0 0 _________PP___ -1 21.3425 85.2849 TC 30 20.9975 85.4903 1 8 329
1936273N15086 1936 54 NI BB NOT_NAMED 1936-10-04 12:00:00 TS 21.5202 85.1870 main 0 0 _________OP___ -1 21.7000 85.1000 TC 30 21.3404 85.2740 1 8 333
1936273N15086 1936 54 NI BB NOT_NAMED 1936-10-04 15:00:00 TS 21.8713 85.0100 main 0 0 _________PO___ -1 22.0425 84.9200 TC 30 21.7000 85.1000 1 8 338
1936273N15086 1936 54 NI BB NOT_NAMED 1936-10-04 18:00:00 TS 22.2444 84.8747 main 0 0 _________OP___ -1 22.4000 84.8000 TC 30 22.0889 84.9494 1 8 346
1936273N15086 1936 54 NI BB NOT_NAMED 1936-10-04 21:00:00 TS 22.6511 84.8038 main 0 0 _________PP___ -1 22.8150 84.7624 TC 30 22.4872 84.8451 1 8 355
1936273N15086 1936 54 NI BB NOT_NAMED 1936-10-05 00:00:00 TS 23.0335 84.7966 main 0 0 _________OP___ -1 23.2000 84.8000 TC 30 22.8670 84.7933 1 7 2
1936273N15086 1936 54 NI BB NOT_NAMED 1936-10-05 03:00:00 TS 23.3437 84.8387 main 0 0 _________PO___ -1 23.4875 84.8775 TC 30 23.2000 84.8000 1 6 12
1936273N15086 1936 54 NI BB NOT_NAMED 1936-10-05 06:00:00 TS 23.5811 84.9174 main 0 0 _________OP___ -1 23.7000 85.0000 TC 30 23.4622 84.8348 1 5 22
1936273N15086 1936 54 NI BB NOT_NAMED 1936-10-05 09:00:00 TS 23.7697 85.0250 main 0 0 _________PP___ -1 23.8649 85.1201 TC 30 23.6746 84.9298 1 4 36
1936273N15086 1936 54 NI BB NOT_NAMED 1936-10-05 12:00:00 TS 23.9248 85.1925 main 0 0 _________OP___ -1 24.0000 85.3000 TC 30 23.8496 85.0850 1 5 51
1936273N15086 1936 54 NI BB NOT_NAMED 1936-10-05 15:00:00 TS 24.0788 85.4350 main 0 0 _________PO___ -1 24.1575 85.5700 TC 30 24.0000 85.3000 1 6 59
1936273N15086 1936 54 NI BB NOT_NAMED 1936-10-05 18:00:00 TS 24.2066 85.7127 main 0 0 _________OP___ -1 24.3000 85.9000 TC 30 24.1365 85.5723 1 6 66
1936273N15086 1936 54 NI BB NOT_NAMED 1936-10-05 21:00:00 TS 24.3221 86.0327 main 0 0 _________PP___ -1 24.4101 86.2475 TC 30 24.2635 85.8895 1 6 70
1936273N15086 1936 54 NI BB NOT_NAMED 1936-10-06 00:00:00 TS 24.4224 86.3580 main 0 0 _________OP___ -1 24.5000 86.6000 TC 30 24.3837 86.2370 1 5 71
1936273N15086 1936 54 NI BB NOT_NAMED 1936-10-06 03:00:00 NR 24.5000 86.6000 main 0 __________O___ -1 TC 24.5000 86.6000 1 5 71

About IBTrACS Database

This database is a web-friendly format of International Best Track Archive for Climate Stewardship (IBTrACS), a global best track data archive curated by NOAA dating back to 1842.

Updated: 2021-10-25